Time;durP1;ratioP1;P1;durP2;ratioP2;P2;SDS_P1;SDS_P2;PMS_P1;PMS_P2;Temp;Humidity;BMP_temperature;BMP_pressure;BME280_temperature;BME280_humidity;BME280_pressure;Samples;Min_cycle;Max_cycle;Signal;HPM_P1;HPM_P2
2020/12/03 00:00:51;;;;;;;11.13;8.93;;;;;;;5.17;73.37;100646.75;5011463;28;20049;-60
2020/12/03 00:03:54;;;;;;;12.73;10.05;;;;;;;5.16;73.15;100648.50;5017111;28;20053;-60
2020/12/03 00:06:46;;;;;;;13.13;8.77;;;;;;;5.15;73.27;100643.34;5030031;28;20487;-60
2020/12/03 00:09:15;;;;;;;13.30;9.30;;;;;;;5.09;73.35;100640.97;5030515;28;20115;-60
2020/12/03 00:11:45;;;;;;;11.00;8.30;;;;;;;5.06;73.68;100634.13;5031153;28;20059;-59
2020/12/03 00:14:11;;;;;;;13.98;8.82;;;;;;;5.03;73.87;100639.44;5030979;28;20054;-60
2020/12/03 00:16:38;;;;;;;11.57;8.63;;;;;;;5.02;73.73;100629.94;5031004;28;20421;-59
2020/12/03 00:19:07;;;;;;;12.05;8.77;;;;;;;5.05;73.94;100637.63;5031020;28;20512;-60
2020/12/03 00:21:35;;;;;;;10.60;8.43;;;;;;;5.06;74.01;100647.97;5031118;28;20048;-60
2020/12/03 00:24:02;;;;;;;12.25;8.85;;;;;;;5.10;73.77;100645.28;5030982;28;20045;-60
2020/12/03 00:26:29;;;;;;;11.77;8.15;;;;;;;5.09;73.79;100636.59;5031112;28;20068;-60
2020/12/03 00:28:56;;;;;;;13.13;8.27;;;;;;;5.03;73.71;100631.66;5030961;28;20045;-60
2020/12/03 00:31:22;;;;;;;10.77;8.35;;;;;;;5.00;73.77;100637.81;5030629;28;20049;-59
2020/12/03 00:33:50;;;;;;;10.40;7.95;;;;;;;4.97;74.05;100637.91;5030581;28;20050;-60
2020/12/03 00:36:17;;;;;;;10.40;7.57;;;;;;;4.97;73.96;100635.28;5030670;28;20054;-60
2020/12/03 00:38:45;;;;;;;10.05;7.85;;;;;;;4.96;73.97;100633.59;5030772;28;20053;-60
2020/12/03 00:41:11;;;;;;;11.48;8.10;;;;;;;4.96;74.03;100633.59;5030522;28;20079;-60
2020/12/03 00:43:38;;;;;;;12.27;7.57;;;;;;;4.95;73.87;100626.72;5030646;28;20420;-60
2020/12/03 00:46:04;;;;;;;9.30;7.32;;;;;;;4.96;74.12;100627.56;5030449;28;20045;-60
2020/12/03 00:48:31;;;;;;;9.75;7.38;;;;;;;4.96;74.12;100615.38;5030639;28;20046;-60
2020/12/03 00:50:57;;;;;;;10.43;7.70;;;;;;;4.96;74.12;100612.78;5030717;28;20444;-60
2020/12/03 00:53:23;;;;;;;10.20;7.45;;;;;;;4.94;74.00;100600.75;5030537;28;20049;-60
2020/12/03 00:55:50;;;;;;;10.15;7.22;;;;;;;4.91;73.94;100599.09;5030386;28;20045;-60
2020/12/03 00:58:16;;;;;;;10.00;7.47;;;;;;;4.87;74.03;100600.13;5030138;28;20556;-60
2020/12/03 01:00:43;;;;;;;9.57;7.13;;;;;;;4.78;73.80;100592.66;5030279;28;20049;-60
2020/12/03 01:03:09;;;;;;;9.50;7.90;;;;;;;4.71;74.05;100590.25;5030068;28;20057;-60
2020/12/03 01:05:36;;;;;;;10.65;8.18;;;;;;;4.68;74.34;100592.94;5030243;28;20046;-60
2020/12/03 01:08:02;;;;;;;9.57;7.10;;;;;;;4.65;74.30;100595.66;5030123;28;20371;-60
2020/12/03 01:10:34;;;;;;;9.60;7.53;;;;;;;4.64;74.04;100606.13;5030202;28;20060;-60
2020/12/03 01:13:02;;;;;;;10.57;7.45;;;;;;;4.64;74.34;100609.56;5029976;28;20045;-61
2020/12/03 01:15:29;;;;;;;11.65;7.45;;;;;;;4.66;74.20;100612.09;5030182;28;20046;-60
2020/12/03 01:17:55;;;;;;;8.57;6.95;;;;;;;4.65;74.13;100613.88;5029916;28;20045;-60
2020/12/03 01:20:24;;;;;;;9.60;7.85;;;;;;;4.64;74.06;100614.75;5030015;28;20046;-60
2020/12/03 01:22:51;;;;;;;10.25;8.07;;;;;;;4.68;74.09;100618.09;5029845;28;20056;-59
2020/12/03 01:25:19;;;;;;;10.55;7.78;;;;;;;4.69;74.08;100617.22;5030068;28;20076;-60
2020/12/03 01:27:46;;;;;;;10.05;7.68;;;;;;;4.65;73.95;100616.47;5033165;28;20132;-59
2020/12/03 01:30:15;;;;;;;10.75;7.45;;;;;;;4.64;73.76;100606.13;5033153;28;20049;-59
2020/12/03 01:32:41;;;;;;;11.60;7.65;;;;;;;4.59;73.87;100608.88;5033198;28;20045;-60
2020/12/03 01:35:10;;;;;;;10.73;7.93;;;;;;;4.56;74.06;100615.03;5033059;28;20050;-59
2020/12/03 01:37:37;;;;;;;11.65;9.07;;;;;;;4.56;73.85;100619.38;5033024;28;20045;-60
2020/12/03 01:40:06;;;;;;;9.90;8.25;;;;;;;4.56;74.07;100617.63;5033131;28;20047;-60
2020/12/03 01:42:32;;;;;;;9.45;7.90;;;;;;;4.54;74.04;100610.78;5032904;28;20091;-59
2020/12/03 01:44:58;;;;;;;10.30;7.75;;;;;;;4.54;74.03;100608.19;5033011;28;20413;-60
2020/12/03 01:47:33;;;;;;;12.40;7.93;;;;;;;4.50;73.96;100604.00;5033196;28;20045;-59
2020/12/03 01:49:59;;;;;;;10.30;8.20;;;;;;;4.45;73.96;100595.50;5032956;28;20418;-59
2020/12/03 01:52:26;;;;;;;13.48;8.95;;;;;;;4.40;74.18;100591.28;5032806;28;20045;-59
2020/12/03 01:54:53;;;;;;;11.77;9.32;;;;;;;4.39;74.25;100579.22;5032597;28;20104;-59
2020/12/03 01:57:34;;;;;;;11.40;9.27;;;;;;;4.35;74.09;100575.00;5032771;28;20460;-60
2020/12/03 02:00:12;;;;;;;13.73;10.23;;;;;;;4.33;74.20;100571.63;5032678;28;20413;-60
2020/12/03 02:02:46;;;;;;;13.40;10.07;;;;;;;4.31;74.43;100565.63;5032790;28;20174;-59
2020/12/03 02:05:15;;;;;;;14.23;10.48;;;;;;;4.30;74.58;100558.72;5032463;28;20049;-60
2020/12/03 02:07:42;;;;;;;15.45;11.00;;;;;;;4.36;74.65;100561.13;5032547;28;20053;-60
2020/12/03 02:10:10;;;;;;;14.90;10.35;;;;;;;4.39;74.57;100561.03;5032544;28;20132;-59
2020/12/03 02:12:36;;;;;;;14.85;10.63;;;;;;;4.38;74.37;100561.06;5031763;28;20045;-60
2020/12/03 02:15:05;;;;;;;13.93;10.52;;;;;;;4.36;74.66;100568.09;5032355;28;20052;-59
2020/12/03 02:17:32;;;;;;;14.00;10.40;;;;;;;4.33;74.51;100575.97;5032498;28;20099;-60
2020/12/03 02:20:06;;;;;;;15.55;11.68;;;;;;;4.32;74.53;100580.31;5032321;28;20053;-60
2020/12/03 02:22:33;;;;;;;15.48;11.32;;;;;;;4.31;74.69;100583.81;5032466;28;20042;-59
2020/12/03 02:24:59;;;;;;;13.77;10.60;;;;;;;4.34;74.44;100586.31;5032305;28;20068;-59
2020/12/03 02:27:26;;;;;;;15.63;11.73;;;;;;;4.36;74.53;100586.25;5032606;28;20046;-60
2020/12/03 02:29:52;;;;;;;17.63;12.05;;;;;;;4.33;74.61;100587.22;5032276;28;20045;-59
2020/12/03 02:32:19;;;;;;;14.77;11.10;;;;;;;4.33;74.57;100582.03;5032597;28;20048;-60
2020/12/03 02:34:46;;;;;;;15.20;10.85;;;;;;;4.32;74.62;100564.72;5032425;28;20056;-60
2020/12/03 02:37:13;;;;;;;14.50;10.32;;;;;;;4.31;74.62;100562.19;5032181;28;20053;-60
2020/12/03 02:39:40;;;;;;;14.65;11.27;;;;;;;4.30;74.64;100560.50;5032376;28;20057;-60
2020/12/03 02:42:10;;;;;;;15.55;10.45;;;;;;;4.29;74.75;100557.06;5032093;28;20045;-60
2020/12/03 02:44:40;;;;;;;14.45;11.02;;;;;;;4.29;74.81;100554.47;5032137;28;20500;-60
2020/12/03 02:47:07;;;;;;;14.38;10.75;;;;;;;4.31;74.96;100552.63;5032099;28;20046;-60
2020/12/03 02:49:33;;;;;;;15.75;11.20;;;;;;;4.31;74.62;100550.03;5032180;28;20041;-60
2020/12/03 02:51:59;;;;;;;14.20;10.23;;;;;;;4.31;74.70;100550.03;5032203;28;20079;-60
2020/12/03 02:54:25;;;;;;;15.73;11.15;;;;;;;4.31;74.81;100559.59;5032218;28;20045;-60
2020/12/03 02:56:51;;;;;;;14.02;11.45;;;;;;;4.32;74.74;100562.13;5031911;28;20494;-60
2020/12/03 02:59:17;;;;;;;12.82;10.02;;;;;;;4.34;74.72;100560.34;5032035;28;20054;-60
2020/12/03 03:01:43;;;;;;;13.13;10.10;;;;;;;4.35;74.52;100563.78;5032003;28;20100;-60
2020/12/03 03:04:10;;;;;;;14.88;10.07;;;;;;;4.33;74.45;100556.03;5032172;28;20184;-60
2020/12/03 03:06:36;;;;;;;12.60;9.77;;;;;;;4.32;74.60;100550.91;5032152;28;20050;-60
2020/12/03 03:09:05;;;;;;;11.70;9.65;;;;;;;4.30;74.67;100545.75;5031625;28;20046;-60
2020/12/03 03:11:32;;;;;;;11.20;9.18;;;;;;;4.30;74.70;100545.75;5031857;28;20049;-60
2020/12/03 03:14:00;;;;;;;11.57;9.57;;;;;;;4.31;74.65;100542.25;5031695;28;20053;-60
2020/12/03 03:16:27;;;;;;;12.65;9.88;;;;;;;4.31;74.72;100544.84;5031975;28;20049;-60
2020/12/03 03:18:54;;;;;;;11.68;9.40;;;;;;;4.30;74.83;100539.72;5031966;28;20528;-60
2020/12/03 03:21:21;;;;;;;11.50;8.55;;;;;;;4.28;75.00;100539.78;5031708;28;20528;-60
2020/12/03 03:23:47;;;;;;;11.43;8.65;;;;;;;4.29;74.81;100533.69;5033347;28;20045;-60
2020/12/03 03:26:14;;;;;;;10.68;8.75;;;;;;;4.28;74.83;100537.19;5035804;28;20057;-60
2020/12/03 03:28:41;;;;;;;10.43;8.43;;;;;;;4.29;74.84;100538.88;5035636;28;20046;-60
2020/12/03 03:31:07;;;;;;;9.93;8.45;;;;;;;4.29;74.80;100544.06;5035574;28;20048;-60
2020/12/03 03:33:34;;;;;;;10.23;7.85;;;;;;;4.29;74.77;100540.59;5035381;28;20100;-60
2020/12/03 03:36:00;;;;;;;13.07;8.73;;;;;;;4.27;74.68;100534.59;5035195;28;20050;-60
2020/12/03 03:38:26;;;;;;;10.70;8.40;;;;;;;4.29;74.83;100533.69;5035397;28;20049;-60
2020/12/03 03:40:52;;;;;;;10.73;8.38;;;;;;;4.31;74.77;100524.06;5035355;28;20042;-60
2020/12/03 03:43:18;;;;;;;13.68;9.18;;;;;;;4.29;74.54;100523.28;5035426;28;20049;-60
2020/12/03 03:45:45;;;;;;;12.50;9.90;;;;;;;4.24;74.73;100518.25;5035269;28;20045;-60
2020/12/03 03:48:11;;;;;;;13.98;8.85;;;;;;;4.21;74.82;100515.72;5035057;28;20107;-60
2020/12/03 03:50:37;;;;;;;13.30;9.57;;;;;;;4.18;74.86;100515.84;5035367;28;20080;-60
2020/12/03 03:53:04;;;;;;;11.80;9.15;;;;;;;4.17;74.96;100523.69;5034899;28;20057;-60
2020/12/03 03:55:30;;;;;;;14.48;10.23;;;;;;;4.18;75.06;100528.84;5035142;28;20050;-60
2020/12/03 03:57:56;;;;;;;13.77;9.85;;;;;;;4.20;75.05;100529.66;5034876;28;20046;-60
2020/12/03 04:00:22;;;;;;;14.25;10.48;;;;;;;4.22;75.08;100530.41;5034799;28;20049;-61
2020/12/03 04:02:49;;;;;;;13.90;10.30;;;;;;;4.23;74.90;100531.28;5031307;28;20049;-60
2020/12/03 04:05:17;;;;;;;14.60;10.30;;;;;;;4.23;74.87;100533.88;5031308;28;20489;-60
2020/12/03 04:07:46;;;;;;;17.10;10.73;;;;;;;4.24;74.74;100543.34;5031095;28;20056;-60
2020/12/03 04:10:25;;;;;;;15.48;10.60;;;;;;;4.25;74.84;100532.94;5031052;28;20049;-60
2020/12/03 04:13:03;;;;;;;16.40;11.48;;;;;;;4.25;74.98;100519.94;5031165;28;20053;-60
2020/12/03 04:15:33;;;;;;;15.85;11.20;;;;;;;4.27;75.03;100514.69;5031230;28;20429;-61
2020/12/03 04:17:59;;;;;;;15.52;10.73;;;;;;;4.28;74.91;100507.72;5031008;28;20056;-60
2020/12/03 04:20:26;;;;;;;16.15;10.82;;;;;;;4.23;74.92;100503.56;5030985;28;20057;-60
2020/12/03 04:22:52;;;;;;;17.30;12.00;;;;;;;4.22;75.09;100501.84;5030943;28;20053;-60
2020/12/03 04:25:18;;;;;;;16.70;11.60;;;;;;;4.24;75.12;100497.47;5030970;28;20075;-60
2020/12/03 04:27:45;;;;;;;16.63;11.52;;;;;;;4.29;75.11;100499.03;5031305;28;20051;-60
2020/12/03 04:30:11;;;;;;;16.30;11.98;;;;;;;4.31;74.97;100508.47;5031065;28;20476;-60
2020/12/03 04:32:38;;;;;;;17.35;11.52;;;;;;;4.35;74.92;100504.03;5030847;28;20045;-60
2020/12/03 04:35:07;;;;;;;17.75;11.65;;;;;;;4.37;74.94;100500.47;5030054;28;20457;-60
2020/12/03 04:37:33;;;;;;;17.25;11.68;;;;;;;4.39;74.93;100506.47;5030786;28;20046;-60
2020/12/03 04:39:59;;;;;;;18.52;12.70;;;;;;;4.38;74.87;100512.56;5030521;28;20549;-60
2020/12/03 04:42:29;;;;;;;19.05;12.52;;;;;;;4.44;74.97;100505.47;5030732;28;20053;-60
2020/12/03 04:45:00;;;;;;;16.85;12.05;;;;;;;4.44;74.49;100515.84;5030675;28;20048;-60
2020/12/03 04:47:35;;;;;;;20.25;12.88;;;;;;;4.40;74.77;100513.34;5030365;28;20048;-60
2020/12/03 04:50:33;;;;;;;16.80;11.73;;;;;;;4.43;74.83;100521.94;5030370;28;20041;-60
2020/12/03 04:53:21;;;;;;;19.55;12.45;;;;;;;4.43;74.85;100521.94;5030431;28;20045;-60
2020/12/03 04:56:05;;;;;;;19.45;12.88;;;;;;;4.43;74.72;100524.53;5030546;28;20069;-60
2020/12/03 04:58:54;;;;;;;18.08;12.48;;;;;;;4.39;74.71;100523.81;5030499;28;20049;-60
2020/12/03 05:01:48;;;;;;;19.67;13.05;;;;;;;4.37;74.80;100521.25;5030223;28;20049;-60
2020/12/03 05:04:20;;;;;;;19.90;12.55;;;;;;;4.37;74.71;100525.63;5030030;28;20049;-60
2020/12/03 05:06:58;;;;;;;20.33;13.65;;;;;;;4.36;74.97;100519.56;5030384;28;20061;-60
2020/12/03 05:09:27;;;;;;;19.10;13.10;;;;;;;4.32;74.80;100523.16;5030094;28;20461;-60
2020/12/03 05:11:58;;;;;;;21.90;13.25;;;;;;;4.32;75.16;100525.78;5029185;28;20065;-60
2020/12/03 05:14:35;;;;;;;19.92;12.68;;;;;;;4.34;74.89;100523.97;5029956;28;20117;-60
2020/12/03 05:17:27;;;;;;;21.13;13.98;;;;;;;4.35;75.00;100530.00;5029765;28;20049;-60
2020/12/03 05:20:12;;;;;;;22.02;12.73;;;;;;;4.33;75.12;100540.47;5029797;28;20065;-60
2020/12/03 05:22:39;;;;;;;20.77;13.07;;;;;;;4.32;75.08;100538.75;5029842;28;20049;-60
2020/12/03 05:25:14;;;;;;;22.02;13.23;;;;;;;4.30;74.99;100544.91;5029974;28;20053;-60
2020/12/03 05:27:41;;;;;;;19.83;12.57;;;;;;;4.30;75.22;100552.69;5029692;28;20107;-60
2020/12/03 05:30:08;;;;;;;21.20;13.07;;;;;;;4.30;75.14;100558.72;5029571;28;20045;-61
2020/12/03 05:32:36;;;;;;;22.10;13.55;;;;;;;4.32;75.02;100558.69;5029878;28;20041;-60
2020/12/03 05:35:05;;;;;;;19.40;13.20;;;;;;;4.33;75.00;100560.38;5029853;28;20486;-60
2020/12/03 05:37:33;;;;;;;20.67;12.82;;;;;;;4.35;75.04;100564.63;5029731;28;20417;-61
2020/12/03 05:40:00;;;;;;;20.08;13.40;;;;;;;4.35;75.07;100569.81;5029506;28;20620;-60
2020/12/03 05:42:33;;;;;;;21.48;13.32;;;;;;;4.34;75.00;100568.13;5029802;28;20045;-60
2020/12/03 05:45:12;;;;;;;23.85;14.75;;;;;;;4.35;74.90;100559.41;5029343;28;20056;-60
2020/12/03 05:47:42;;;;;;;21.33;13.35;;;;;;;4.36;74.90;100547.31;5028509;28;20057;-60
2020/12/03 05:50:16;;;;;;;21.85;14.00;;;;;;;4.37;74.89;100549.84;5029055;28;20073;-60
2020/12/03 05:53:12;;;;;;;22.20;13.45;;;;;;;4.39;75.00;100553.25;5029392;28;20046;-60
2020/12/03 05:55:39;;;;;;;22.50;14.73;;;;;;;4.43;74.90;100556.56;5029439;28;20053;-60
2020/12/03 05:58:17;;;;;;;18.65;12.55;;;;;;;4.46;74.98;100574.66;5028737;28;20088;-60
2020/12/03 06:00:44;;;;;;;22.55;13.63;;;;;;;4.50;74.78;100575.41;5042221;28;20135;-61
2020/12/03 06:03:32;;;;;;;21.95;13.52;;;;;;;4.54;74.77;100569.19;5029220;28;20105;-61
2020/12/03 06:06:05;;;;;;;22.08;13.82;;;;;;;4.57;74.46;100576.88;5028834;28;20075;-61
2020/12/03 06:08:55;;;;;;;21.20;12.75;;;;;;;4.56;74.38;100567.41;5029163;28;20057;-62
2020/12/03 06:11:33;;;;;;;19.85;12.98;;;;;;;4.54;74.43;100564.00;5029298;28;20100;-61
2020/12/03 06:14:35;;;;;;;21.80;13.23;;;;;;;4.49;74.30;100571.94;5028962;28;20057;-61
2020/12/03 06:17:19;;;;;;;22.85;12.70;;;;;;;4.47;74.60;100568.56;5028015;28;20049;-61
2020/12/03 06:20:09;;;;;;;21.23;12.80;;;;;;;4.52;74.57;100571.84;5028976;28;20049;-60
2020/12/03 06:23:16;;;;;;;21.83;13.40;;;;;;;4.55;74.28;100560.50;5028907;28;20046;-61
2020/12/03 06:26:22;;;;;;;20.17;12.90;;;;;;;4.55;74.32;100556.16;5028145;28;20140;-61
2020/12/03 06:29:30;;;;;;;22.08;13.57;;;;;;;4.56;74.42;100557.84;5027486;28;20497;-61
2020/12/03 06:32:23;;;;;;;21.92;13.07;;;;;;;4.58;74.37;100560.38;5028137;28;20068;-61
2020/12/03 06:35:24;;;;;;;24.20;13.80;;;;;;;4.58;74.17;100565.59;5028822;28;20052;-61
2020/12/03 06:38:30;;;;;;;23.27;12.90;;;;;;;4.55;74.35;100570.91;5028212;28;20049;-62
2020/12/03 06:41:15;;;;;;;19.98;13.35;;;;;;;4.56;74.55;100583.00;5025502;28;20053;-62
2020/12/03 06:43:52;;;;;;;21.20;13.43;;;;;;;4.59;74.47;100598.47;5028955;28;20135;-63
2020/12/03 06:46:37;;;;;;;23.40;13.93;;;;;;;4.59;74.35;100588.09;5027737;28;20038;-60
2020/12/03 06:49:24;;;;;;;23.25;13.05;;;;;;;4.59;74.30;100593.28;5009198;28;20514;-62
2020/12/03 06:52:28;;;;;;;20.67;13.57;;;;;;;4.62;74.42;100585.41;5008752;28;20054;-60
2020/12/03 06:55:10;;;;;;;25.88;16.42;;;;;;;4.74;75.07;100584.94;5022374;28;20057;-62
2020/12/03 06:58:06;;;;;;;23.92;14.05;;;;;;;4.73;74.65;100582.41;5028326;28;20046;-62
2020/12/03 07:00:59;;;;;;;20.17;13.25;;;;;;;4.74;74.66;100592.75;5031596;28;20049;-62
2020/12/03 07:04:03;;;;;;;22.20;13.70;;;;;;;4.76;74.41;100602.25;5030494;28;20478;-62
2020/12/03 07:06:29;;;;;;;25.40;15.50;;;;;;;4.77;74.45;100601.34;5031290;28;20068;-62
2020/12/03 07:09:24;;;;;;;22.08;14.50;;;;;;;4.74;74.42;100600.53;5031777;28;20453;-62
2020/12/03 07:12:02;;;;;;;23.95;14.73;;;;;;;4.75;74.40;100598.81;5011056;28;20064;-62
2020/12/03 07:14:59;;;;;;;21.48;14.07;;;;;;;4.88;74.98;100615.66;5027181;28;20111;-62
2020/12/03 07:17:49;;;;;;;20.50;12.57;;;;;;;4.90;74.70;100615.59;5030137;28;20045;-63
2020/12/03 07:20:53;;;;;;;20.40;13.18;;;;;;;4.90;74.31;100616.47;5030159;28;20065;-62
2020/12/03 07:23:32;;;;;;;21.15;12.48;;;;;;;4.91;74.39;100625.09;5030803;28;20045;-63
2020/12/03 07:26:02;;;;;;;21.80;13.45;;;;;;;4.91;74.26;100625.09;5031321;28;20045;-63
2020/12/03 07:28:36;;;;;;;20.70;13.13;;;;;;;4.92;74.10;100623.38;5029875;28;20171;-62
2020/12/03 07:31:15;;;;;;;22.05;13.57;;;;;;;4.93;74.07;100618.09;5029249;28;20049;-62
2020/12/03 07:34:05;;;;;;;22.75;14.20;;;;;;;4.95;73.77;100615.44;5029053;28;20051;-62
2020/12/03 07:36:48;;;;;;;24.00;14.50;;;;;;;4.96;74.17;100618.00;5026421;28;20061;-62
2020/12/03 07:39:18;;;;;;;21.65;13.55;;;;;;;5.00;74.04;100622.19;5022595;28;20075;-62
2020/12/03 07:41:49;;;;;;;22.75;14.30;;;;;;;5.02;74.15;100622.13;5031765;28;20049;-61
2020/12/03 07:44:15;;;;;;;21.42;13.40;;;;;;;5.05;73.96;100628.09;5031274;28;20103;-61
2020/12/03 07:46:42;;;;;;;20.35;13.45;;;;;;;5.06;73.85;100628.91;5031496;28;20406;-62
2020/12/03 07:49:09;;;;;;;22.38;13.75;;;;;;;5.06;73.77;100632.34;5031308;28;20509;-62
2020/12/03 07:51:36;;;;;;;22.77;13.73;;;;;;;5.06;73.75;100621.94;5031492;28;20054;-61
2020/12/03 07:54:18;;;;;;;22.90;13.70;;;;;;;5.05;73.95;100622.88;5031064;28;20045;-62
2020/12/03 07:56:46;;;;;;;22.25;13.43;;;;;;;5.03;73.91;100622.06;5031490;28;20045;-61
2020/12/03 07:59:25;;;;;;;20.13;12.93;;;;;;;5.01;74.07;100628.25;5031190;28;20056;-62
2020/12/03 08:01:55;;;;;;;22.75;14.13;;;;;;;5.01;74.02;100625.63;5031247;28;20120;-64
2020/12/03 08:04:32;;;;;;;20.48;13.10;;;;;;;5.01;74.17;100636.03;5030921;28;20100;-62
2020/12/03 08:07:02;;;;;;;20.45;13.57;;;;;;;5.02;74.30;100624.75;5030220;28;20409;-63
2020/12/03 08:09:46;;;;;;;21.83;13.73;;;;;;;5.03;74.23;100621.25;5029901;28;20080;-63
2020/12/03 08:12:22;;;;;;;18.95;13.45;;;;;;;5.04;74.21;100620.31;5027695;28;20076;-62
2020/12/03 08:14:49;;;;;;;24.30;13.68;;;;;;;5.05;74.20;100630.69;5030827;28;20045;-62
2020/12/03 08:17:16;;;;;;;21.45;13.77;;;;;;;5.07;74.30;100623.66;5030950;28;20042;-62
2020/12/03 08:19:44;;;;;;;45.97;24.30;;;;;;;5.10;73.99;100624.47;5030670;28;20054;-62
2020/12/03 08:22:24;;;;;;;31.35;19.08;;;;;;;5.13;74.02;100614.81;5030661;28;20045;-62
2020/12/03 08:25:00;;;;;;;28.67;16.17;;;;;;;5.16;73.95;100627.69;5030538;28;20045;-62
2020/12/03 08:27:26;;;;;;;26.23;14.27;;;;;;;5.20;74.06;100625.81;5030383;28;20049;-62
2020/12/03 08:29:52;;;;;;;23.92;14.57;;;;;;;5.22;74.06;100624.03;5030351;28;20547;-62
2020/12/03 08:32:18;;;;;;;23.42;14.15;;;;;;;5.24;73.96;100632.59;5030543;28;20073;-62
2020/12/03 08:34:45;;;;;;;23.58;14.32;;;;;;;5.26;74.11;100632.53;5030935;28;20107;-62
2020/12/03 08:37:16;;;;;;;22.10;15.30;;;;;;;5.28;74.07;100635.94;5030352;28;20569;-62
2020/12/03 08:39:50;;;;;;;25.50;13.50;;;;;;;5.29;73.93;100638.50;5030243;28;20474;-62
2020/12/03 08:42:18;;;;;;;24.45;14.13;;;;;;;5.28;74.17;100634.22;5030191;28;20084;-62
2020/12/03 08:44:46;;;;;;;21.58;14.25;;;;;;;5.29;73.93;100641.09;5030418;28;20045;-62
2020/12/03 08:47:42;;;;;;;24.27;13.88;;;;;;;5.29;73.93;100630.69;5030162;28;20049;-62
2020/12/03 08:50:16;;;;;;;22.87;14.40;;;;;;;5.30;74.03;100631.56;5029885;28;20060;-62
2020/12/03 08:52:43;;;;;;;22.55;13.68;;;;;;;5.31;74.03;100628.06;5030036;28;20418;-62
2020/12/03 08:55:12;;;;;;;21.05;13.23;;;;;;;5.32;74.08;100622.78;5029906;28;20061;-62
2020/12/03 08:57:44;;;;;;;23.20;14.77;;;;;;;5.34;74.07;100625.31;5030062;28;20457;-62
2020/12/03 09:00:15;;;;;;;25.42;14.75;;;;;;;5.35;74.15;100624.44;5029606;28;20525;-62
2020/12/03 09:02:42;;;;;;;21.15;13.85;;;;;;;5.36;73.95;100626.97;5029713;28;20041;-62
2020/12/03 09:05:09;;;;;;;24.20;14.30;;;;;;;5.36;73.75;100624.34;5029142;28;20120;-62
2020/12/03 09:07:49;;;;;;;32.30;16.80;;;;;;;5.38;73.93;100640.78;5028873;28;20045;-62
2020/12/03 09:10:20;;;;;;;26.17;14.77;;;;;;;5.39;73.95;100647.66;5029531;28;20045;-62
2020/12/03 09:12:47;;;;;;;22.88;14.95;;;;;;;5.41;73.86;100647.63;5029718;28;20673;-62
2020/12/03 09:15:16;;;;;;;26.08;15.10;;;;;;;5.42;74.11;100646.69;5029694;28;20049;-62
2020/12/03 09:17:50;;;;;;;24.50;15.68;;;;;;;5.45;73.86;100648.38;5029878;28;20418;-62
2020/12/03 09:20:17;;;;;;;23.48;15.35;;;;;;;5.47;74.05;100644.81;5029692;28;20057;-62
2020/12/03 09:22:43;;;;;;;24.33;14.75;;;;;;;5.50;73.92;100652.47;5029475;28;20085;-62
2020/12/03 09:25:12;;;;;;;24.42;14.98;;;;;;;5.49;74.00;100655.16;5029911;28;20103;-62
2020/12/03 09:27:49;;;;;;;22.80;15.50;;;;;;;5.50;74.06;100660.28;5029747;28;20041;-62
2020/12/03 09:30:21;;;;;;;24.80;15.57;;;;;;;5.52;74.08;100655.00;5028571;28;20103;-62
2020/12/03 09:32:57;;;;;;;24.70;14.60;;;;;;;5.50;74.01;100652.47;5029403;28;20053;-62
2020/12/03 09:35:25;;;;;;;24.40;15.27;;;;;;;5.52;73.97;100655.00;5029214;28;20057;-62
2020/12/03 09:37:58;;;;;;;24.63;15.45;;;;;;;5.50;73.90;100660.28;5029110;28;20075;-62
2020/12/03 09:40:25;;;;;;;23.83;15.60;;;;;;;5.50;74.20;100654.25;5029345;28;20060;-62
2020/12/03 09:42:53;;;;;;;24.75;15.90;;;;;;;5.50;74.13;100649.03;5028532;28;20049;-62
2020/12/03 09:45:23;;;;;;;25.50;15.98;;;;;;;5.51;74.14;100645.50;5026434;28;20049;-62
2020/12/03 09:47:50;;;;;;;25.20;15.90;;;;;;;5.53;74.18;100644.53;5029011;28;20051;-63
2020/12/03 09:50:20;;;;;;;24.05;16.02;;;;;;;5.55;74.15;100634.94;5028785;28;20080;-63
2020/12/03 09:52:47;;;;;;;26.58;17.38;;;;;;;5.57;74.03;100637.47;5029016;28;20045;-62
2020/12/03 09:55:15;;;;;;;24.83;16.42;;;;;;;5.59;74.09;100630.47;5028651;28;20046;-62
2020/12/03 09:58:02;;;;;;;23.73;15.68;;;;;;;5.61;74.12;100631.28;5029002;28;20072;-62
2020/12/03 10:00:31;;;;;;;22.65;15.30;;;;;;;5.63;73.95;100619.03;5028722;28;20049;-62
2020/12/03 10:02:57;;;;;;;26.52;16.38;;;;;;;5.65;73.72;100617.22;5029287;28;20115;-62
2020/12/03 10:05:39;;;;;;;24.60;15.95;;;;;;;5.68;73.64;100614.50;5027751;28;20049;-62
2020/12/03 10:08:24;;;;;;;27.27;15.23;;;;;;;5.71;73.56;100606.56;5028331;28;20092;-63
2020/12/03 10:11:13;;;;;;;23.88;15.23;;;;;;;5.75;73.58;100593.44;5028960;28;20075;-62
2020/12/03 10:14:17;;;;;;;22.85;15.77;;;;;;;5.78;73.62;100590.72;5028748;28;20054;-62
2020/12/03 10:16:45;;;;;;;22.80;14.70;;;;;;;5.80;73.50;100594.97;5028686;28;20056;-62
2020/12/03 10:19:12;;;;;;;21.95;15.45;;;;;;;5.80;73.68;100600.16;5028330;28;20049;-62
2020/12/03 10:21:53;;;;;;;22.75;14.63;;;;;;;5.81;73.80;100595.78;5028958;28;20049;-63
2020/12/03 10:24:21;;;;;;;21.63;14.35;;;;;;;5.85;73.65;100594.75;5028843;28;20061;-62
2020/12/03 10:27:36;;;;;;;22.63;14.63;;;;;;;5.88;73.56;100597.25;5028393;28;20088;-63
2020/12/03 10:30:07;;;;;;;21.60;14.73;;;;;;;5.88;73.74;100594.66;5025207;28;20041;-63
2020/12/03 10:32:43;;;;;;;24.80;17.27;;;;;;;5.88;73.44;100592.06;5027775;28;20077;-62
2020/12/03 10:35:10;;;;;;;21.13;14.48;;;;;;;5.88;73.61;100592.06;5026335;28;20079;-62
2020/12/03 10:37:46;;;;;;;24.38;14.88;;;;;;;5.89;73.67;100583.31;5027962;28;20555;-63
2020/12/03 10:40:18;;;;;;;21.20;14.93;;;;;;;5.89;73.68;100578.09;5028443;28;20054;-61
2020/12/03 10:42:58;;;;;;;21.65;15.02;;;;;;;5.91;73.71;100580.66;5028428;28;20042;-61
2020/12/03 10:45:30;;;;;;;25.67;16.55;;;;;;;5.95;73.88;100579.63;5028259;28;20053;-60
2020/12/03 10:48:04;;;;;;;22.75;14.82;;;;;;;5.97;73.82;100570.84;5028714;28;20414;-61
2020/12/03 10:50:51;;;;;;;23.95;14.75;;;;;;;6.01;73.81;100567.22;5028453;28;20048;-61
2020/12/03 10:53:22;;;;;;;24.70;14.70;;;;;;;6.02;73.89;100570.69;5028585;28;20045;-61
2020/12/03 10:56:12;;;;;;;21.70;13.73;;;;;;;6.02;73.81;100566.31;5028353;28;20064;-61
2020/12/03 10:58:55;;;;;;;22.55;14.50;;;;;;;6.04;73.82;100572.31;5028214;28;20042;-61
2020/12/03 11:01:27;;;;;;;21.15;14.32;;;;;;;6.03;74.03;100574.97;5027979;28;20057;-61
2020/12/03 11:03:56;;;;;;;25.58;16.92;;;;;;;6.02;74.01;100570.69;5025854;28;20057;-61
2020/12/03 11:06:28;;;;;;;26.92;18.13;;;;;;;6.00;74.02;100559.47;5028042;28;20123;-61
2020/12/03 11:09:03;;;;;;;30.55;18.63;;;;;;;6.01;74.17;100550.75;5025701;28;20053;-61
2020/12/03 11:11:37;;;;;;;26.67;18.48;;;;;;;6.04;74.13;100555.84;5024443;28;20482;-61
2020/12/03 11:14:10;;;;;;;25.45;17.02;;;;;;;6.07;74.08;100544.44;5028280;28;20489;-61
2020/12/03 11:16:42;;;;;;;31.50;22.63;;;;;;;6.09;74.17;100547.84;5027826;28;20548;-63
2020/12/03 11:19:32;;;;;;;32.25;20.60;;;;;;;6.12;74.27;100553.78;5027507;28;20482;-62
2020/12/03 11:22:26;;;;;;;68.65;41.90;;;;;;;6.12;74.11;100548.56;5027890;28;20429;-61
2020/12/03 11:24:59;;;;;;;28.58;18.95;;;;;;;6.13;74.33;100541.59;5008271;28;20045;-61
2020/12/03 11:27:28;;;;;;;37.25;22.17;;;;;;;6.13;74.24;100538.97;5027408;28;20436;-61
2020/12/03 11:29:54;;;;;;;30.15;20.50;;;;;;;6.17;74.46;100537.94;5025677;28;20611;-62
2020/12/03 11:32:26;;;;;;;26.80;17.60;;;;;;;6.16;74.32;100534.50;5027337;28;20498;-62
2020/12/03 11:34:53;;;;;;;33.25;21.80;;;;;;;6.17;74.45;100540.53;5027168;28;20088;-63
2020/12/03 11:37:24;;;;;;;23.70;15.55;;;;;;;6.18;74.43;100531.81;5026007;28;20046;-63
2020/12/03 11:40:05;;;;;;;29.27;17.30;;;;;;;6.19;74.32;100526.53;5027702;28;20052;-63
2020/12/03 11:46:05;;;;;;;24.58;15.85;;;;;;;6.18;74.19;100522.25;5024407;28;20051;-61
2020/12/03 11:50:38;;;;;;;36.55;23.10;;;;;;;6.18;74.21;100522.25;5030926;28;20045;-64
2020/12/03 11:53:05;;;;;;;30.02;20.20;;;;;;;6.24;74.43;100520.31;5029381;28;20559;-64